^^
Meteo Knjazevac Station Historical Data
Daily Summary for January 15, 2021 Units:  Both    English   Metric
Daily Weekly Monthly Yearly Custom
  High: Low: Average:
Temperature: 36.1 °F /  2.3 °C 30 °F /  -1.1 °C 31.7 °F /  -0.2 °C
Dew Point: 29.8 °F /  -1.2 °C 26.7 °F /  -2.9 °C 28.1 °F /  -2.2 °C
Humidity: 91% 74% 87%
Wind Speed: 9mph /  14.5km/h - 3.7mph /  6km/h
Wind Gust: 16mph /  25.7km/h - -
Wind- - WSW
Pressure: 30.08 in /  1018.5 hPa 29.96 in /  1014.4 hPa -
Precipitation: 0.00 in /  0 mm    
Historical Graphs
 
 
Tabular Data for January 15, 2021
Time Temperature Dew Point Pressure Wind Wind Speed Wind Gust Humidity Rainfall Rate (Hourly) solar Conditions
00:00 30.9 °F /  -0.6 °C 28.1 °F /  -2.2 °C 29.96in /  1014.4hPa Calm   5mph /  8km/h 89% 0.00in /  0mm 0 W/m2
00:10 31 °F /  -0.6 °C 28.2 °F /  -2.1 °C 29.96in /  1014.4hPa WSW 5mph /  8km/h 7mph /  11.3km/h 89% 0.00in /  0mm 0 W/m2
00:20 31.1 °F /  -0.5 °C 28.2 °F /  -2.1 °C 29.96in /  1014.4hPa WSW 5mph /  8km/h 8mph /  12.9km/h 89% 0.00in /  0mm 0 W/m2
00:30 31.1 °F /  -0.5 °C 28.5 °F /  -1.9 °C 29.96in /  1014.4hPa WSW 3mph /  4.8km/h 7mph /  11.3km/h 90% 0.00in /  0mm 0 W/m2
00:40 31.1 °F /  -0.5 °C 28.2 °F /  -2.1 °C 29.96in /  1014.4hPa WNW 2mph /  3.2km/h 11mph /  17.7km/h 89% 0.00in /  0mm 0 W/m2
00:50 31.1 °F /  -0.5 °C 28.2 °F /  -2.1 °C 29.96in /  1014.4hPa West 1mph /  1.6km/h 8mph /  12.9km/h 89% 0.00in /  0mm 0 W/m2
01:00 31.3 °F /  -0.4 °C 28.1 °F /  -2.2 °C 29.96in /  1014.4hPa West 3mph /  4.8km/h 10mph /  16.1km/h 88% 0.00in /  0mm 0 W/m2
01:10 31.3 °F /  -0.4 °C 28.4 °F /  -2 °C 29.97in /  1014.8hPa SSW 2mph /  3.2km/h 6mph /  9.7km/h 89% 0.00in /  0mm 0 W/m2
01:20 31.3 °F /  -0.4 °C 28.1 °F /  -2.2 °C 29.97in /  1014.8hPa SW 2mph /  3.2km/h 7mph /  11.3km/h 88% 0.00in /  0mm 0 W/m2
01:30 31.3 °F /  -0.4 °C 28.1 °F /  -2.2 °C 29.97in /  1014.8hPa West 3mph /  4.8km/h 10mph /  16.1km/h 88% 0.00in /  0mm 0 W/m2
01:40 31.3 °F /  -0.4 °C 28.4 °F /  -2 °C 29.98in /  1015.1hPa WNW 3mph /  4.8km/h 8mph /  12.9km/h 89% 0.00in /  0mm 0 W/m2
01:50 31.3 °F /  -0.4 °C 28.4 °F /  -2 °C 29.98in /  1015.1hPa West 2mph /  3.2km/h 6mph /  9.7km/h 89% 0.00in /  0mm 0 W/m2
02:00 31.3 °F /  -0.4 °C 28.4 °F /  -2 °C 29.98in /  1015.1hPa West 5mph /  8km/h 7mph /  11.3km/h 89% 0.00in /  0mm 0 W/m2
02:10 31.3 °F /  -0.4 °C 28.4 °F /  -2 °C 29.98in /  1015.1hPa West 5mph /  8km/h 10mph /  16.1km/h 89% 0.00in /  0mm 0 W/m2
02:20 31.3 °F /  -0.4 °C 28.4 °F /  -2 °C 29.99in /  1015.5hPa West 6mph /  9.7km/h 10mph /  16.1km/h 89% 0.00in /  0mm 0 W/m2
02:30 31.2 °F /  -0.4 °C 28.3 °F /  -2.1 °C 29.99in /  1015.5hPa West 5mph /  8km/h 8mph /  12.9km/h 89% 0.00in /  0mm 0 W/m2
02:40 31.1 °F /  -0.5 °C 28.5 °F /  -1.9 °C 29.99in /  1015.5hPa WSW 5mph /  8km/h 10mph /  16.1km/h 90% 0.00in /  0mm 0 W/m2
02:50 31.1 °F /  -0.5 °C 28.5 °F /  -1.9 °C 29.99in /  1015.5hPa WSW 6mph /  9.7km/h 8mph /  12.9km/h 90% 0.00in /  0mm 0 W/m2
03:00 31.1 °F /  -0.5 °C 28.5 °F /  -1.9 °C 29.99in /  1015.5hPa WSW 5mph /  8km/h 8mph /  12.9km/h 90% 0.00in /  0mm 0 W/m2
03:10 31 °F /  -0.6 °C 28.4 °F /  -2 °C 29.99in /  1015.5hPa WSW 3mph /  4.8km/h 10mph /  16.1km/h 90% 0.00in /  0mm 0 W/m2
03:20 30.9 °F /  -0.6 °C 28.3 °F /  -2.1 °C 29.99in /  1015.5hPa WSW 3mph /  4.8km/h 8mph /  12.9km/h 90% 0.00in /  0mm 0 W/m2
03:30 31.1 °F /  -0.5 °C 28.5 °F /  -1.9 °C 29.99in /  1015.5hPa WSW 5mph /  8km/h 8mph /  12.9km/h 90% 0.00in /  0mm 0 W/m2
03:40 30.9 °F /  -0.6 °C 28.3 °F /  -2.1 °C 29.99in /  1015.5hPa WSW 6mph /  9.7km/h 8mph /  12.9km/h 90% 0.00in /  0mm 0 W/m2
03:50 30.9 °F /  -0.6 °C 28.3 °F /  -2.1 °C 29.99in /  1015.5hPa WSW 5mph /  8km/h 8mph /  12.9km/h 90% 0.00in /  0mm 0 W/m2
04:00 30.9 °F /  -0.6 °C 28.3 °F /  -2.1 °C 29.99in /  1015.5hPa WSW 5mph /  8km/h 8mph /  12.9km/h 90% 0.00in /  0mm 0 W/m2
04:10 30.9 °F /  -0.6 °C 28.1 °F /  -2.2 °C 29.99in /  1015.5hPa WSW 5mph /  8km/h 9mph /  14.5km/h 89% 0.00in /  0mm 0 W/m2
04:20 30.9 °F /  -0.6 °C 28.1 °F /  -2.2 °C 29.99in /  1015.5hPa SW 7mph /  11.3km/h 13mph /  20.9km/h 89% 0.00in /  0mm 0 W/m2
04:30 31.1 °F /  -0.5 °C 28 °F /  -2.2 °C 29.99in /  1015.5hPa WSW 8mph /  12.9km/h 13mph /  20.9km/h 88% 0.00in /  0mm 0 W/m2
04:40 31.1 °F /  -0.5 °C 28 °F /  -2.2 °C 29.99in /  1015.5hPa WSW 5mph /  8km/h 12mph /  19.3km/h 88% 0.00in /  0mm 0 W/m2
04:50 31 °F /  -0.6 °C 27.8 °F /  -2.3 °C 29.99in /  1015.5hPa WSW 6mph /  9.7km/h 13mph /  20.9km/h 88% 0.00in /  0mm 0 W/m2
05:00 31.1 °F /  -0.5 °C 27.4 °F /  -2.6 °C 30.00in /  1015.8hPa WSW 5mph /  8km/h 13mph /  20.9km/h 86% 0.00in /  0mm 0 W/m2
05:10 31 °F /  -0.6 °C 27.3 °F /  -2.6 °C 30.00in /  1015.8hPa WSW 7mph /  11.3km/h 12mph /  19.3km/h 86% 0.00in /  0mm 0 W/m2
05:20 30.9 °F /  -0.6 °C 27.8 °F /  -2.3 °C 30.00in /  1015.8hPa West 6mph /  9.7km/h 12mph /  19.3km/h 88% 0.00in /  0mm 0 W/m2
05:30 30.9 °F /  -0.6 °C 27.8 °F /  -2.3 °C 30.00in /  1015.8hPa West 5mph /  8km/h 14mph /  22.5km/h 88% 0.00in /  0mm 0 W/m2
05:40 30.7 °F /  -0.7 °C 27.6 °F /  -2.4 °C 30.00in /  1015.8hPa WSW 6mph /  9.7km/h 8mph /  12.9km/h 88% 0.00in /  0mm 0 W/m2
05:50 30.6 °F /  -0.8 °C 27.7 °F /  -2.4 °C 30.01in /  1016.1hPa WSW 3mph /  4.8km/h 8mph /  12.9km/h 89% 0.00in /  0mm 0 W/m2
06:00 30.4 °F /  -0.9 °C 27.9 °F /  -2.3 °C 30.01in /  1016.1hPa WSW 7mph /  11.3km/h 16mph /  25.7km/h 90% 0.00in /  0mm 0 W/m2
06:10 30.6 °F /  -0.8 °C 27.7 °F /  -2.4 °C 30.01in /  1016.1hPa WSW 7mph /  11.3km/h 15mph /  24.1km/h 89% 0.00in /  0mm 0 W/m2
06:20 30.7 °F /  -0.7 °C 27.9 °F /  -2.3 °C 30.02in /  1016.5hPa WSW 7mph /  11.3km/h 16mph /  25.7km/h 89% 0.00in /  0mm 0 W/m2
06:30 30.7 °F /  -0.7 °C 27.9 °F /  -2.3 °C 30.02in /  1016.5hPa WSW 5mph /  8km/h 14mph /  22.5km/h 89% 0.00in /  0mm 0 W/m2
06:40 30.7 °F /  -0.7 °C 27.9 °F /  -2.3 °C 30.02in /  1016.5hPa WSW 5mph /  8km/h 9mph /  14.5km/h 89% 0.00in /  0mm 0 W/m2
06:50 30.6 °F /  -0.8 °C 27.7 °F /  -2.4 °C 30.02in /  1016.5hPa WSW 3mph /  4.8km/h 8mph /  12.9km/h 89% 0.00in /  0mm 0 W/m2
07:00 30.4 °F /  -0.9 °C 27.5 °F /  -2.5 °C 30.02in /  1016.5hPa WSW 5mph /  8km/h 10mph /  16.1km/h 89% 0.00in /  0mm 0 W/m2
07:10 30.2 °F /  -1 °C 27.6 °F /  -2.4 °C 30.02in /  1016.5hPa WSW 5mph /  8km/h 10mph /  16.1km/h 90% 0.00in /  0mm 7 W/m2
07:20 30 °F /  -1.1 °C 27.4 °F /  -2.6 °C 30.03in /  1016.8hPa WSW 3mph /  4.8km/h 9mph /  14.5km/h 90% 0.00in /  0mm 11 W/m2
07:30 30.2 °F /  -1 °C 27.6 °F /  -2.4 °C 30.03in /  1016.8hPa WSW 6mph /  9.7km/h 9mph /  14.5km/h 90% 0.00in /  0mm 18 W/m2
07:40 30.5 °F /  -0.8 °C 27.6 °F /  -2.4 °C 30.04in /  1017.2hPa WSW 8mph /  12.9km/h 12mph /  19.3km/h 89% 0.00in /  0mm 28 W/m2
07:50 30.6 °F /  -0.8 °C 27.7 °F /  -2.4 °C 30.04in /  1017.2hPa WSW 5mph /  8km/h 11mph /  17.7km/h 89% 0.00in /  0mm 47 W/m2
08:00 30.7 °F /  -0.7 °C 27.6 °F /  -2.4 °C 30.04in /  1017.2hPa WSW 5mph /  8km/h 10mph /  16.1km/h 88% 0.00in /  0mm 62 W/m2
08:10 30.6 °F /  -0.8 °C 27.7 °F /  -2.4 °C 30.04in /  1017.2hPa SSW 2mph /  3.2km/h 7mph /  11.3km/h 89% 0.00in /  0mm 62 W/m2
08:20 30.6 °F /  -0.8 °C 27.7 °F /  -2.4 °C 30.04in /  1017.2hPa South 2mph /  3.2km/h 4mph /  6.4km/h 89% 0.00in /  0mm 97 W/m2
08:30 30.7 °F /  -0.7 °C 28.2 °F /  -2.1 °C 30.04in /  1017.2hPa SW 1mph /  1.6km/h 4mph /  6.4km/h 90% 0.00in /  0mm 141 W/m2
08:40 31.3 °F /  -0.4 °C 28.4 °F /  -2 °C 30.04in /  1017.2hPa West 1mph /  1.6km/h 3mph /  4.8km/h 89% 0.00in /  0mm 157 W/m2
08:50 31.6 °F /  -0.2 °C 28.5 °F /  -1.9 °C 30.04in /  1017.2hPa WSW 2mph /  3.2km/h 8mph /  12.9km/h 88% 0.00in /  0mm 181 W/m2
09:00 32.2 °F /  0.1 °C 29 °F /  -1.7 °C 30.05in /  1017.5hPa WSW 2mph /  3.2km/h 8mph /  12.9km/h 88% 0.00in /  0mm 200 W/m2
09:10 32.9 °F /  0.5 °C 28.9 °F /  -1.7 °C 30.05in /  1017.5hPa WSW 7mph /  11.3km/h 11mph /  17.7km/h 85% 0.00in /  0mm 219 W/m2
09:20 33.3 °F /  0.7 °C 28.9 °F /  -1.7 °C 30.05in /  1017.5hPa WSW 9mph /  14.5km/h 15mph /  24.1km/h 84% 0.00in /  0mm 236 W/m2
09:30 33.4 °F /  0.8 °C 29.1 °F /  -1.6 °C 30.05in /  1017.5hPa WSW 9mph /  14.5km/h 15mph /  24.1km/h 84% 0.00in /  0mm 220 W/m2
09:40 33.1 °F /  0.6 °C 28.8 °F /  -1.8 °C 30.06in /  1017.8hPa West 6mph /  9.7km/h 14mph /  22.5km/h 84% 0.00in /  0mm 159 W/m2
09:50 33 °F /  0.6 °C 28.9 °F /  -1.7 °C 30.06in /  1017.8hPa West 5mph /  8km/h 11mph /  17.7km/h 85% 0.00in /  0mm 159 W/m2
10:00 33.1 °F /  0.6 °C 28.8 °F /  -1.8 °C 30.06in /  1017.8hPa WSW 8mph /  12.9km/h 14mph /  22.5km/h 84% 0.00in /  0mm 142 W/m2
10:10 32.9 °F /  0.5 °C 28.6 °F /  -1.9 °C 30.06in /  1017.8hPa WSW 6mph /  9.7km/h 14mph /  22.5km/h 84% 0.00in /  0mm 132 W/m2
10:20 32.9 °F /  0.5 °C 28.6 °F /  -1.9 °C 30.06in /  1017.8hPa WSW 5mph /  8km/h 11mph /  17.7km/h 84% 0.00in /  0mm 129 W/m2
10:30 32.7 °F /  0.4 °C 28.4 °F /  -2 °C 30.06in /  1017.8hPa WSW 6mph /  9.7km/h 15mph /  24.1km/h 84% 0.00in /  0mm 146 W/m2
10:40 32.8 °F /  0.4 °C 28.5 °F /  -1.9 °C 30.06in /  1017.8hPa WSW 5mph /  8km/h 15mph /  24.1km/h 84% 0.00in /  0mm 147 W/m2
10:50 32.9 °F /  0.5 °C 28.6 °F /  -1.9 °C 30.05in /  1017.5hPa West 5mph /  8km/h 10mph /  16.1km/h 84% 0.00in /  0mm 146 W/m2
11:00 33.1 °F /  0.6 °C 28.8 °F /  -1.8 °C 30.05in /  1017.5hPa West 6mph /  9.7km/h 10mph /  16.1km/h 84% 0.00in /  0mm 164 W/m2
11:10 33.2 °F /  0.7 °C 28.9 °F /  -1.7 °C 30.05in /  1017.5hPa WNW 6mph /  9.7km/h 12mph /  19.3km/h 84% 0.00in /  0mm 201 W/m2
11:30 34 °F /  1.1 °C 29.4 °F /  -1.4 °C 30.05in /  1017.5hPa West 6mph /  9.7km/h 14mph /  22.5km/h 83% 0.00in /  0mm 205 W/m2
11:40 34 °F /  1.1 °C 29.4 °F /  -1.4 °C 30.04in /  1017.2hPa West 6mph /  9.7km/h 12mph /  19.3km/h 83% 0.00in /  0mm 96 W/m2
11:50 33.3 °F /  0.7 °C 28.7 °F /  -1.8 °C 30.08in /  1018.5hPa West 3mph /  4.8km/h 12mph /  19.3km/h 83% 0.00in /  0mm 81 W/m2
12:00 32.9 °F /  0.5 °C 28.3 °F /  -2.1 °C 30.08in /  1018.5hPa West 5mph /  8km/h 12mph /  19.3km/h 83% 0.00in /  0mm 105 W/m2
12:10 32.7 °F /  0.4 °C 28.4 °F /  -2 °C 30.08in /  1018.5hPa West 5mph /  8km/h 10mph /  16.1km/h 84% 0.00in /  0mm 148 W/m2
12:20 32.7 °F /  0.4 °C 28.4 °F /  -2 °C 30.08in /  1018.5hPa West 7mph /  11.3km/h 11mph /  17.7km/h 84% 0.00in /  0mm 163 W/m2
12:30 32.7 °F /  0.4 °C 28.4 °F /  -2 °C 30.07in /  1018.2hPa West 6mph /  9.7km/h 9mph /  14.5km/h 84% 0.00in /  0mm 139 W/m2
12:40 32.7 °F /  0.4 °C 28.1 °F /  -2.2 °C 30.07in /  1018.2hPa WSW 5mph /  8km/h 8mph /  12.9km/h 83% 0.00in /  0mm 141 W/m2
12:50 32.9 °F /  0.5 °C 28.6 °F /  -1.9 °C 30.07in /  1018.2hPa WSW 6mph /  9.7km/h 9mph /  14.5km/h 84% 0.00in /  0mm 143 W/m2
13:00 32.9 °F /  0.5 °C 28.6 °F /  -1.9 °C 30.07in /  1018.2hPa WSW 5mph /  8km/h 10mph /  16.1km/h 84% 0.00in /  0mm 156 W/m2
13:10 33.1 °F /  0.6 °C 28.5 °F /  -1.9 °C 30.07in /  1018.2hPa WSW 5mph /  8km/h 8mph /  12.9km/h 83% 0.00in /  0mm 168 W/m2
13:20 33.2 °F /  0.7 °C 28 °F /  -2.2 °C 30.06in /  1017.8hPa WSW 5mph /  8km/h 9mph /  14.5km/h 81% 0.00in /  0mm 175 W/m2
13:30 33.8 °F /  1 °C 28.2 °F /  -2.1 °C 30.06in /  1017.8hPa WSW 5mph /  8km/h 10mph /  16.1km/h 80% 0.00in /  0mm 276 W/m2
13:40 35.4 °F /  1.9 °C 29.8 °F /  -1.2 °C 30.06in /  1017.8hPa WSW 6mph /  9.7km/h 9mph /  14.5km/h 80% 0.00in /  0mm 260 W/m2
13:50 36.1 °F /  2.3 °C 29.6 °F /  -1.3 °C 30.06in /  1017.8hPa WSW 7mph /  11.3km/h 12mph /  19.3km/h 77% 0.00in /  0mm 244 W/m2
14:00 35.6 °F /  2 °C 28.5 °F /  -1.9 °C 30.06in /  1017.8hPa WSW 6mph /  9.7km/h 13mph /  20.9km/h 75% 0.00in /  0mm 136 W/m2
14:10 34.9 °F /  1.6 °C 27.8 °F /  -2.3 °C 30.06in /  1017.8hPa WSW 7mph /  11.3km/h 13mph /  20.9km/h 75% 0.00in /  0mm 124 W/m2
14:20 34.3 °F /  1.3 °C 27.2 °F /  -2.7 °C 30.06in /  1017.8hPa WSW 6mph /  9.7km/h 13mph /  20.9km/h 75% 0.00in /  0mm 126 W/m2
14:30 34.2 °F /  1.2 °C 26.7 °F /  -2.9 °C 30.06in /  1017.8hPa West 7mph /  11.3km/h 13mph /  20.9km/h 74% 0.00in /  0mm 87 W/m2
14:40 34 °F /  1.1 °C 26.9 °F /  -2.8 °C 30.06in /  1017.8hPa West 8mph /  12.9km/h 13mph /  20.9km/h 75% 0.00in /  0mm 72 W/m2
14:50 33.7 °F /  0.9 °C 27.2 °F /  -2.7 °C 30.06in /  1017.8hPa WSW 7mph /  11.3km/h 12mph /  19.3km/h 77% 0.00in /  0mm 66 W/m2
15:00 33.6 °F /  0.9 °C 27.5 °F /  -2.5 °C 30.07in /  1018.2hPa WSW 6mph /  9.7km/h 12mph /  19.3km/h 78% 0.00in /  0mm 53 W/m2
15:10 33.4 °F /  0.8 °C 27.3 °F /  -2.6 °C 30.07in /  1018.2hPa WSW 3mph /  4.8km/h 8mph /  12.9km/h 78% 0.00in /  0mm 38 W/m2
15:20 33.4 °F /  0.8 °C 27.6 °F /  -2.4 °C 30.07in /  1018.2hPa WSW 3mph /  4.8km/h 8mph /  12.9km/h 79% 0.00in /  0mm 25 W/m2
15:30 33.3 °F /  0.7 °C 27.5 °F /  -2.5 °C 30.07in /  1018.2hPa WSW 2mph /  3.2km/h 5mph /  8km/h 79% 0.00in /  0mm 23 W/m2
15:40 33.3 °F /  0.7 °C 27.8 °F /  -2.3 °C 30.07in /  1018.2hPa WSW 2mph /  3.2km/h 4mph /  6.4km/h 80% 0.00in /  0mm 19 W/m2
15:50 33.3 °F /  0.7 °C 27.8 °F /  -2.3 °C 30.07in /  1018.2hPa WSW 1mph /  1.6km/h 3mph /  4.8km/h 80% 0.00in /  0mm 13 W/m2
16:00 33.3 °F /  0.7 °C 28.1 °F /  -2.2 °C 30.07in /  1018.2hPa WSW 1mph /  1.6km/h 2mph /  3.2km/h 81% 0.00in /  0mm 3 W/m2
16:10 33.1 °F /  0.6 °C 28.5 °F /  -1.9 °C 30.07in /  1018.2hPa WSW 1mph /  1.6km/h 2mph /  3.2km/h 83% 0.00in /  0mm 4 W/m2
16:20 32.9 °F /  0.5 °C 28.6 °F /  -1.9 °C 30.07in /  1018.2hPa SW 1mph /  1.6km/h 3mph /  4.8km/h 84% 0.00in /  0mm 2 W/m2
16:30 32.8 °F /  0.4 °C 28.5 °F /  -1.9 °C 30.07in /  1018.2hPa WSW 5mph /  8km/h 7mph /  11.3km/h 84% 0.00in /  0mm 0 W/m2
16:40 32.5 °F /  0.3 °C 28.5 °F /  -1.9 °C 30.07in /  1018.2hPa WSW 5mph /  8km/h 8mph /  12.9km/h 85% 0.00in /  0mm 0 W/m2
16:50 32.4 °F /  0.2 °C 28.6 °F /  -1.9 °C 30.07in /  1018.2hPa WSW 6mph /  9.7km/h 8mph /  12.9km/h 86% 0.00in /  0mm 0 W/m2
17:00 32.2 °F /  0.1 °C 28.5 °F /  -1.9 °C 30.07in /  1018.2hPa WSW 3mph /  4.8km/h 8mph /  12.9km/h 86% 0.00in /  0mm 0 W/m2
17:10 32 °F /  0 °C 28.3 °F /  -2.1 °C 30.07in /  1018.2hPa WSW 3mph /  4.8km/h 6mph /  9.7km/h 86% 0.00in /  0mm 0 W/m2
17:20 32 °F /  0 °C 28.3 °F /  -2.1 °C 30.07in /  1018.2hPa SW 2mph /  3.2km/h 5mph /  8km/h 86% 0.00in /  0mm 0 W/m2
17:30 31.8 °F /  -0.1 °C 28.7 °F /  -1.8 °C 30.07in /  1018.2hPa WSW 1mph /  1.6km/h 3mph /  4.8km/h 88% 0.00in /  0mm 0 W/m2
17:40 31.8 °F /  -0.1 °C 28.7 °F /  -1.8 °C 30.07in /  1018.2hPa West 1mph /  1.6km/h 3mph /  4.8km/h 88% 0.00in /  0mm 0 W/m2
17:50 31.8 °F /  -0.1 °C 28.7 °F /  -1.8 °C 30.07in /  1018.2hPa NW 1mph /  1.6km/h 2mph /  3.2km/h 88% 0.00in /  0mm 0 W/m2
18:00 31.6 °F /  -0.2 °C 28.5 °F /  -1.9 °C 30.08in /  1018.5hPa Calm   3mph /  4.8km/h 88% 0.00in /  0mm 0 W/m2
18:10 31.5 °F /  -0.3 °C 28.3 °F /  -2.1 °C 30.08in /  1018.5hPa West 2mph /  3.2km/h 3mph /  4.8km/h 88% 0.00in /  0mm 0 W/m2
18:20 31.5 °F /  -0.3 °C 28.6 °F /  -1.9 °C 30.08in /  1018.5hPa SW 2mph /  3.2km/h 3mph /  4.8km/h 89% 0.00in /  0mm 0 W/m2
18:30 31.3 °F /  -0.4 °C 28.4 °F /  -2 °C 30.08in /  1018.5hPa WSW 1mph /  1.6km/h 3mph /  4.8km/h 89% 0.00in /  0mm 0 W/m2
18:40 31.1 °F /  -0.5 °C 28.3 °F /  -2.1 °C 30.08in /  1018.5hPa SW 1mph /  1.6km/h 2mph /  3.2km/h 89% 0.00in /  0mm 0 W/m2
18:50 31.1 °F /  -0.5 °C 28.2 °F /  -2.1 °C 30.08in /  1018.5hPa WSW 1mph /  1.6km/h 2mph /  3.2km/h 89% 0.00in /  0mm 0 W/m2
19:00 30.9 °F /  -0.6 °C 28.1 °F /  -2.2 °C 30.08in /  1018.5hPa West 2mph /  3.2km/h 4mph /  6.4km/h 89% 0.00in /  0mm 0 W/m2
19:10 30.9 °F /  -0.6 °C 28.3 °F /  -2.1 °C 30.08in /  1018.5hPa West 1mph /  1.6km/h 3mph /  4.8km/h 90% 0.00in /  0mm 0 W/m2
19:20 30.7 °F /  -0.7 °C 28.2 °F /  -2.1 °C 30.08in /  1018.5hPa WSW 1mph /  1.6km/h 3mph /  4.8km/h 90% 0.00in /  0mm 0 W/m2
19:30 30.6 °F /  -0.8 °C 28 °F /  -2.2 °C 30.07in /  1018.2hPa SSW 5mph /  8km/h 8mph /  12.9km/h 90% 0.00in /  0mm 0 W/m2
19:40 30.6 °F /  -0.8 °C 28 °F /  -2.2 °C 30.07in /  1018.2hPa SW 2mph /  3.2km/h 8mph /  12.9km/h 90% 0.00in /  0mm 0 W/m2
19:50 30.5 °F /  -0.8 °C 28 °F /  -2.2 °C 30.07in /  1018.2hPa West 3mph /  4.8km/h 5mph /  8km/h 90% 0.00in /  0mm 0 W/m2
20:00 30.4 °F /  -0.9 °C 27.8 °F /  -2.3 °C 30.07in /  1018.2hPa NNE 2mph /  3.2km/h 5mph /  8km/h 90% 0.00in /  0mm 0 W/m2
20:10 30.4 °F /  -0.9 °C 28.1 °F /  -2.2 °C 30.08in /  1018.5hPa North 1mph /  1.6km/h 4mph /  6.4km/h 91% 0.00in /  0mm 0 W/m2
20:20 30.4 °F /  -0.9 °C 27.8 °F /  -2.3 °C 30.07in /  1018.2hPa SSE 2mph /  3.2km/h 7mph /  11.3km/h 90% 0.00in /  0mm 0 W/m2
20:30 30.6 °F /  -0.8 °C 28 °F /  -2.2 °C 30.07in /  1018.2hPa WSW 1mph /  1.6km/h 8mph /  12.9km/h 90% 0.00in /  0mm 0 W/m2
20:40 30.6 °F /  -0.8 °C 28 °F /  -2.2 °C 30.07in /  1018.2hPa SW 2mph /  3.2km/h 4mph /  6.4km/h 90% 0.00in /  0mm 0 W/m2
20:50 30.6 °F /  -0.8 °C 28 °F /  -2.2 °C 30.07in /  1018.2hPa SW 1mph /  1.6km/h 6mph /  9.7km/h 90% 0.00in /  0mm 0 W/m2
21:00 30.6 °F /  -0.8 °C 28 °F /  -2.2 °C 30.07in /  1018.2hPa SSE 1mph /  1.6km/h 6mph /  9.7km/h 90% 0.00in /  0mm 0 W/m2
21:10 30.6 °F /  -0.8 °C 28 °F /  -2.2 °C 30.07in /  1018.2hPa Calm   4mph /  6.4km/h 90% 0.00in /  0mm 0 W/m2
21:20 30.6 °F /  -0.8 °C 28 °F /  -2.2 °C 30.07in /  1018.2hPa SW 1mph /  1.6km/h 4mph /  6.4km/h 90% 0.00in /  0mm 0 W/m2
21:30 30.6 °F /  -0.8 °C 27.7 °F /  -2.4 °C 30.07in /  1018.2hPa WSW 2mph /  3.2km/h 6mph /  9.7km/h 89% 0.00in /  0mm 0 W/m2
21:40 30.6 °F /  -0.8 °C 27.7 °F /  -2.4 °C 30.07in /  1018.2hPa WSW 1mph /  1.6km/h 5mph /  8km/h 89% 0.00in /  0mm 0 W/m2
21:50 30.6 °F /  -0.8 °C 27.7 °F /  -2.4 °C 30.07in /  1018.2hPa Calm   4mph /  6.4km/h 89% 0.00in /  0mm 0 W/m2
22:00 30.6 °F /  -0.8 °C 27.7 °F /  -2.4 °C 30.07in /  1018.2hPa Calm   2mph /  3.2km/h 89% 0.00in /  0mm 0 W/m2
22:10 30.5 °F /  -0.8 °C 27.7 °F /  -2.4 °C 30.07in /  1018.2hPa Calm   2mph /  3.2km/h 89% 0.00in /  0mm 0 W/m2
22:20 30.5 °F /  -0.8 °C 27.7 °F /  -2.4 °C 30.07in /  1018.2hPa Calm   3mph /  4.8km/h 89% 0.00in /  0mm 0 W/m2
22:30 30.4 °F /  -0.9 °C 27.8 °F /  -2.3 °C 30.07in /  1018.2hPa WSW 1mph /  1.6km/h 2mph /  3.2km/h 90% 0.00in /  0mm 0 W/m2
22:40 30.4 °F /  -0.9 °C 27.8 °F /  -2.3 °C 30.07in /  1018.2hPa West 1mph /  1.6km/h 4mph /  6.4km/h 90% 0.00in /  0mm 0 W/m2
22:50 30.2 °F /  -1 °C 27.6 °F /  -2.4 °C 30.07in /  1018.2hPa NE 1mph /  1.6km/h 5mph /  8km/h 90% 0.00in /  0mm 0 W/m2
23:00 30.2 °F /  -1 °C 27.6 °F /  -2.4 °C 30.07in /  1018.2hPa North 1mph /  1.6km/h 3mph /  4.8km/h 90% 0.00in /  0mm 0 W/m2
23:10 30.2 °F /  -1 °C 27.6 °F /  -2.4 °C 30.07in /  1018.2hPa WNW 1mph /  1.6km/h 3mph /  4.8km/h 90% 0.00in /  0mm 0 W/m2
23:20 30.2 °F /  -1 °C 27.3 °F /  -2.6 °C 30.07in /  1018.2hPa NNW 1mph /  1.6km/h 6mph /  9.7km/h 89% 0.00in /  0mm 0 W/m2
23:30 30.2 °F /  -1 °C 27.3 °F /  -2.6 °C 30.07in /  1018.2hPa WNW 2mph /  3.2km/h 6mph /  9.7km/h 89% 0.00in /  0mm 0 W/m2
23:40 30.2 °F /  -1 °C 27.3 °F /  -2.6 °C 30.07in /  1018.2hPa Calm   3mph /  4.8km/h 89% 0.00in /  0mm 0 W/m2
23:50 30.2 °F /  -1 °C 27.3 °F /  -2.6 °C 30.07in /  1018.2hPa Calm   2mph /  3.2km/h 89% 0.00in /  0mm 0 W/m2
Knjazevac, Serbia
Compliments of Weather Underground - 2 mb